Airfield :
LOGIN :

Register | Disclaimer

   EN    FR    IT 

 










Legend :    VFR   Marginal VFR   IFR   Intensive IFR   Very Intensive IFR
Visi :
Ceiling :
>= 8 km
>= 3000ft
5 to 8 km
1000 to 3000 ft
1500m to 5 km
500 to 1000 ft
800 to 1500m
200 to 500 ft
< 800m
< 200 ft
Symbols :   Thunderstorms  Fog  Heavy snow  Heavy precipitations  Wind > 20 kt
SIGMETs :     Misc.  Thunderstorms  Icing  Turbulence  Mountain Waves  Volcanic Ashes







- Airport Elevation : 1585 ft
- IATA code : SIR


LSGS - Sion

CURRENT METAR :
  • 200450Z AUTO VRB01KT CAVOK M01/M05 Q1029

EXPIRED METARs :
  • 200420Z AUTO VRB01KT CAVOK M00/M05 Q1029
  • 200350Z AUTO VRB01KT CAVOK 01/M05 Q1029
  • 200320Z AUTO 08004KT CAVOK 00/M05 Q1029
  • 200250Z AUTO 07003KT CAVOK 00/M05 Q1029
  • 200220Z AUTO 06003KT CAVOK 01/M05 Q1029
  • 200150Z AUTO 09003KT CAVOK 01/M05 Q1029

Expired Forecast.
No reported NOTAMs for that airfield.



MET'MAP, your aeronautical weather chart ! - Copyright ORBIFLY December 2007 - Disclaimer

ORBIFLY MET'MAP TEAM :

Programming & Development : Alexandra Zaïnal
Concept & Development : Baudouin d'Aumeries
Co-Development & Prog : Marc-Olivier Méhu
Technical & hardware support : Manuel Goepfert

Contact : metmap@orbifly.com




SOURCES & CREDITS :

   NOAA